sensor_id;sensor_type;location;lat;lon;timestamp;pressure;altitude;pressure_sealevel;temperature;humidity
8160;BME280;27404;52.398;9.646;2023-04-23T00:01:12;99948.50;;;13.60;100.00
8160;BME280;27404;52.398;9.646;2023-04-23T00:03:40;99949.06;;;13.62;100.00
8160;BME280;27404;52.398;9.646;2023-04-23T00:06:07;99947.41;;;13.56;100.00
8160;BME280;27404;52.398;9.646;2023-04-23T00:08:38;99951.25;;;13.55;100.00
8160;BME280;27404;52.398;9.646;2023-04-23T00:11:04;99940.00;;;13.51;100.00
8160;BME280;27404;52.398;9.646;2023-04-23T00:13:30;99945.47;;;13.51;100.00
8160;BME280;27404;52.398;9.646;2023-04-23T00:15:56;99938.88;;;13.47;100.00
8160;BME280;27404;52.398;9.646;2023-04-23T00:18:22;99941.09;;;13.55;100.00
8160;BME280;27404;52.398;9.646;2023-04-23T00:20:47;99939.72;;;13.58;100.00
8160;BME280;27404;52.398;9.646;2023-04-23T00:23:13;99939.72;;;13.58;100.00
8160;BME280;27404;52.398;9.646;2023-04-23T00:25:38;99936.41;;;13.61;100.00
8160;BME280;27404;52.398;9.646;2023-04-23T00:28:04;99941.34;;;13.59;100.00
8160;BME280;27404;52.398;9.646;2023-04-23T00:30:29;99941.34;;;13.54;100.00
8160;BME280;27404;52.398;9.646;2023-04-23T00:32:55;99938.91;;;13.57;100.00
8160;BME280;27404;52.398;9.646;2023-04-23T00:35:20;99931.47;;;13.58;100.00
8160;BME280;27404;52.398;9.646;2023-04-23T00:37:46;99926.78;;;13.63;100.00
8160;BME280;27404;52.398;9.646;2023-04-23T00:40:11;99923.50;;;13.67;100.00
8160;BME280;27404;52.398;9.646;2023-04-23T00:42:38;99922.69;;;13.61;100.00
8160;BME280;27404;52.398;9.646;2023-04-23T00:45:07;99919.94;;;13.56;100.00
8160;BME280;27404;52.398;9.646;2023-04-23T00:47:34;99913.34;;;13.57;100.00
8160;BME280;27404;52.398;9.646;2023-04-23T00:50:00;99912.53;;;13.56;100.00
8160;BME280;27404;52.398;9.646;2023-04-23T00:52:25;99913.34;;;13.57;100.00
8160;BME280;27404;52.398;9.646;2023-04-23T00:54:53;99915.81;;;13.58;100.00
8160;BME280;27404;52.398;9.646;2023-04-23T00:57:19;99917.75;;;13.63;100.00
8160;BME280;27404;52.398;9.646;2023-04-23T00:59:45;99912.25;;;13.58;100.00
8160;BME280;27404;52.398;9.646;2023-04-23T01:02:11;99924.06;;;13.63;100.00
8160;BME280;27404;52.398;9.646;2023-04-23T01:04:37;99936.69;;;13.65;100.00
8160;BME280;27404;52.398;9.646;2023-04-23T01:07:03;99944.63;;;13.51;100.00
8160;BME280;27404;52.398;9.646;2023-04-23T01:09:28;99946.50;;;13.29;100.00
8160;BME280;27404;52.398;9.646;2023-04-23T01:11:56;99947.84;;;13.11;100.00
8160;BME280;27404;52.398;9.646;2023-04-23T01:14:22;99948.59;;;12.96;100.00
8160;BME280;27404;52.398;9.646;2023-04-23T01:16:48;99953.47;;;12.79;100.00
8160;BME280;27404;52.398;9.646;2023-04-23T01:19:14;99964.06;;;12.65;100.00
8160;BME280;27404;52.398;9.646;2023-04-23T01:21:40;99957.47;;;12.61;100.00
8160;BME280;27404;52.398;9.646;2023-04-23T01:24:07;99956.66;;;12.60;100.00
8160;BME280;27404;52.398;9.646;2023-04-23T01:26:33;99960.47;;;12.54;100.00
8160;BME280;27404;52.398;9.646;2023-04-23T01:29:00;99961.03;;;12.56;100.00
8160;BME280;27404;52.398;9.646;2023-04-23T01:31:26;99966.44;;;12.46;100.00
8160;BME280;27404;52.398;9.646;2023-04-23T01:33:52;99967.81;;;12.43;100.00
8160;BME280;27404;52.398;9.646;2023-04-23T01:36:19;99972.09;;;12.28;100.00
8160;BME280;27404;52.398;9.646;2023-04-23T01:38:45;99970.69;;;12.26;100.00
8160;BME280;27404;52.398;9.646;2023-04-23T01:41:10;99970.69;;;12.21;100.00
8160;BME280;27404;52.398;9.646;2023-04-23T01:43:36;99969.56;;;12.17;100.00
8160;BME280;27404;52.398;9.646;2023-04-23T01:46:02;99971.16;;;12.12;100.00
8160;BME280;27404;52.398;9.646;2023-04-23T01:48:28;99974.69;;;12.08;100.00
8160;BME280;27404;52.398;9.646;2023-04-23T01:50:54;99973.88;;;12.07;100.00
8160;BME280;27404;52.398;9.646;2023-04-23T01:53:20;99969.44;;;12.01;100.00
8160;BME280;27404;52.398;9.646;2023-04-23T01:55:46;99979.22;;;11.97;100.00
8160;BME280;27404;52.398;9.646;2023-04-23T01:58:12;99970.44;;;11.95;100.00
8160;BME280;27404;52.398;9.646;2023-04-23T02:00:38;99969.88;;;11.93;100.00
8160;BME280;27404;52.398;9.646;2023-04-23T02:03:03;99981.13;;;11.91;100.00
8160;BME280;27404;52.398;9.646;2023-04-23T02:05:33;99967.94;;;11.88;100.00
8160;BME280;27404;52.398;9.646;2023-04-23T02:07:59;99975.28;;;11.82;100.00
8160;BME280;27404;52.398;9.646;2023-04-23T02:10:24;99978.81;;;11.78;100.00
8160;BME280;27404;52.398;9.646;2023-04-23T02:12:50;99971.91;;;11.75;100.00
8160;BME280;27404;52.398;9.646;2023-04-23T02:15:16;99973.56;;;11.76;100.00
8160;BME280;27404;52.398;9.646;2023-04-23T02:17:41;99974.59;;;11.70;100.00
8160;BME280;27404;52.398;9.646;2023-04-23T02:20:08;99973.47;;;11.66;100.00
8160;BME280;27404;52.398;9.646;2023-04-23T02:22:35;99976.47;;;11.64;100.00
8160;BME280;27404;52.398;9.646;2023-04-23T02:25:02;99984.69;;;11.64;100.00
8160;BME280;27404;52.398;9.646;2023-04-23T02:27:27;99986.03;;;11.62;100.00
8160;BME280;27404;52.398;9.646;2023-04-23T02:29:53;99987.69;;;11.63;100.00
8160;BME280;27404;52.398;9.646;2023-04-23T02:32:18;99986.59;;;11.64;100.00
8160;BME280;27404;52.398;9.646;2023-04-23T02:34:44;99997.28;;;11.65;100.00
8160;BME280;27404;52.398;9.646;2023-04-23T02:37:10;99991.03;;;11.70;100.00
8160;BME280;27404;52.398;9.646;2023-04-23T02:39:36;99988.25;;;11.65;100.00
8160;BME280;27404;52.398;9.646;2023-04-23T02:42:03;99992.06;;;11.64;100.00
8160;BME280;27404;52.398;9.646;2023-04-23T02:44:29;99998.59;;;11.58;100.00
8160;BME280;27404;52.398;9.646;2023-04-23T02:46:54;99991.72;;;11.55;100.00
8160;BME280;27404;52.398;9.646;2023-04-23T02:49:20;99994.63;;;11.43;100.00
8160;BME280;27404;52.398;9.646;2023-04-23T02:51:46;99997.91;;;11.45;100.00
8160;BME280;27404;52.398;9.646;2023-04-23T02:54:12;99989.03;;;11.33;100.00
8160;BME280;27404;52.398;9.646;2023-04-23T02:56:37;99992.63;;;11.38;100.00
8160;BME280;27404;52.398;9.646;2023-04-23T02:59:03;99994.03;;;11.41;100.00
8160;BME280;27404;52.398;9.646;2023-04-23T03:01:28;99987.66;;;11.35;100.00
8160;BME280;27404;52.398;9.646;2023-04-23T03:03:54;99989.09;;;11.38;100.00
8160;BME280;27404;52.398;9.646;2023-04-23T03:06:19;99991.75;;;11.33;100.00
8160;BME280;27404;52.398;9.646;2023-04-23T03:08:45;99991.44;;;11.29;100.00
8160;BME280;27404;52.398;9.646;2023-04-23T03:11:10;100001.06;;;11.32;100.00
8160;BME280;27404;52.398;9.646;2023-04-23T03:13:36;100004.31;;;11.29;100.00
8160;BME280;27404;52.398;9.646;2023-04-23T03:16:02;100001.81;;;11.27;100.00
8160;BME280;27404;52.398;9.646;2023-04-23T03:18:27;100007.81;;;11.24;100.00
8160;BME280;27404;52.398;9.646;2023-04-23T03:20:53;100009.97;;;11.22;100.00
8160;BME280;27404;52.398;9.646;2023-04-23T03:23:18;100006.16;;;11.23;100.00
8160;BME280;27404;52.398;9.646;2023-04-23T03:25:44;100007.13;;;11.11;100.00
8160;BME280;27404;52.398;9.646;2023-04-23T03:28:09;100008.50;;;11.14;100.00
8160;BME280;27404;52.398;9.646;2023-04-23T03:30:35;100008.50;;;11.14;100.00
8160;BME280;27404;52.398;9.646;2023-04-23T03:33:01;100003.94;;;11.20;100.00
8160;BME280;27404;52.398;9.646;2023-04-23T03:35:27;100010.44;;;11.14;100.00
8160;BME280;27404;52.398;9.646;2023-04-23T03:37:52;100011.56;;;11.18;100.00
8160;BME280;27404;52.398;9.646;2023-04-23T03:40:19;100006.34;;;11.16;100.00
8160;BME280;27404;52.398;9.646;2023-04-23T03:42:45;100008.91;;;11.23;100.00
8160;BME280;27404;52.398;9.646;2023-04-23T03:45:10;100009.97;;;11.22;100.00
8160;BME280;27404;52.398;9.646;2023-04-23T03:47:40;100011.00;;;11.16;100.00
8160;BME280;27404;52.398;9.646;2023-04-23T03:50:07;100025.25;;;11.18;100.00
8160;BME280;27404;52.398;9.646;2023-04-23T03:52:33;100025.25;;;11.18;100.00
8160;BME280;27404;52.398;9.646;2023-04-23T03:54:59;100023.97;;;11.03;100.00
8160;BME280;27404;52.398;9.646;2023-04-23T03:57:24;100027.72;;;10.97;100.00
8160;BME280;27404;52.398;9.646;2023-04-23T03:59:49;100031.03;;;10.99;100.00
8160;BME280;27404;52.398;9.646;2023-04-23T04:02:15;100030.38;;;10.92;100.00
8160;BME280;27404;52.398;9.646;2023-04-23T04:04:41;100031.47;;;10.91;100.00
8160;BME280;27404;52.398;9.646;2023-04-23T04:07:07;100034.97;;;10.86;100.00
8160;BME280;27404;52.398;9.646;2023-04-23T04:09:36;100029.09;;;10.77;100.00
8160;BME280;27404;52.398;9.646;2023-04-23T04:12:02;100033.75;;;10.77;100.00
8160;BME280;27404;52.398;9.646;2023-04-23T04:14:29;100029.28;;;10.71;100.00
8160;BME280;27404;52.398;9.646;2023-04-23T04:16:55;100036.13;;;10.73;100.00
8160;BME280;27404;52.398;9.646;2023-04-23T04:19:21;100043.75;;;10.71;100.00
8160;BME280;27404;52.398;9.646;2023-04-23T04:21:47;100041.72;;;10.61;100.00
8160;BME280;27404;52.398;9.646;2023-04-23T04:24:12;100035.97;;;10.63;100.00
8160;BME280;27404;52.398;9.646;2023-04-23T04:26:38;100045.13;;;10.51;100.00
8160;BME280;27404;52.398;9.646;2023-04-23T04:29:04;100046.94;;;10.46;100.00
8160;BME280;27404;52.398;9.646;2023-04-23T04:31:29;100043.91;;;10.42;100.00
8160;BME280;27404;52.398;9.646;2023-04-23T04:33:56;100048.66;;;10.35;100.00
8160;BME280;27404;52.398;9.646;2023-04-23T04:36:22;100048.91;;;10.33;100.00
8160;BME280;27404;52.398;9.646;2023-04-23T04:38:50;100050.56;;;10.34;100.00
8160;BME280;27404;52.398;9.646;2023-04-23T04:41:16;100055.69;;;10.31;100.00
8160;BME280;27404;52.398;9.646;2023-04-23T04:43:44;100052.06;;;10.25;100.00
8160;BME280;27404;52.398;9.646;2023-04-23T04:46:10;100058.44;;;10.14;100.00
8160;BME280;27404;52.398;9.646;2023-04-23T04:48:36;100060.31;;;10.13;100.00
8160;BME280;27404;52.398;9.646;2023-04-23T04:51:01;100062.31;;;10.18;100.00
8160;BME280;27404;52.398;9.646;2023-04-23T04:53:27;100059.81;;;10.16;100.00
8160;BME280;27404;52.398;9.646;2023-04-23T04:55:53;100073.97;;;10.13;100.00
8160;BME280;27404;52.398;9.646;2023-04-23T04:58:18;100073.00;;;10.19;100.00
8160;BME280;27404;52.398;9.646;2023-04-23T05:00:43;100067.69;;;10.13;100.00
8160;BME280;27404;52.398;9.646;2023-04-23T05:03:09;100081.75;;;10.04;100.00
8160;BME280;27404;52.398;9.646;2023-04-23T05:05:35;100077.38;;;10.03;100.00
8160;BME280;27404;52.398;9.646;2023-04-23T05:08:00;100084.00;;;10.07;100.00
8160;BME280;27404;52.398;9.646;2023-04-23T05:10:29;100086.53;;;9.97;100.00
8160;BME280;27404;52.398;9.646;2023-04-23T05:12:57;100083.31;;;10.00;100.00
8160;BME280;27404;52.398;9.646;2023-04-23T05:15:22;100087.22;;;10.04;100.00
8160;BME280;27404;52.398;9.646;2023-04-23T05:17:48;100088.28;;;10.03;100.00
8160;BME280;27404;52.398;9.646;2023-04-23T05:20:17;100082.91;;;10.08;100.00
8160;BME280;27404;52.398;9.646;2023-04-23T05:22:42;100084.56;;;10.10;100.00
8160;BME280;27404;52.398;9.646;2023-04-23T05:25:10;100089.19;;;10.09;100.00
8160;BME280;27404;52.398;9.646;2023-04-23T05:27:39;100076.47;;;10.15;100.00
8160;BME280;27404;52.398;9.646;2023-04-23T05:30:07;100079.94;;;10.10;100.00
8160;BME280;27404;52.398;9.646;2023-04-23T05:32:34;100074.47;;;10.10;100.00
8160;BME280;27404;52.398;9.646;2023-04-23T05:35:00;100070.66;;;10.11;100.00
8160;BME280;27404;52.398;9.646;2023-04-23T05:37:27;100076.72;;;10.13;100.00
8160;BME280;27404;52.398;9.646;2023-04-23T05:39:53;100071.34;;;10.18;100.00
8160;BME280;27404;52.398;9.646;2023-04-23T05:42:18;100082.03;;;10.20;100.00
8160;BME280;27404;52.398;9.646;2023-04-23T05:44:43;100077.97;;;10.22;100.00
8160;BME280;27404;52.398;9.646;2023-04-23T05:47:13;100092.38;;;10.18;100.00
8160;BME280;27404;52.398;9.646;2023-04-23T05:49:39;100087.00;;;10.23;100.00
8160;BME280;27404;52.398;9.646;2023-04-23T05:52:04;100088.13;;;10.27;100.00
8160;BME280;27404;52.398;9.646;2023-04-23T05:54:30;100099.97;;;10.16;100.00
8160;BME280;27404;52.398;9.646;2023-04-23T05:56:56;100098.22;;;10.10;100.00
8160;BME280;27404;52.398;9.646;2023-04-23T05:59:21;100108.56;;;10.07;100.00
8160;BME280;27404;52.398;9.646;2023-04-23T06:01:47;100116.19;;;10.05;100.00
8160;BME280;27404;52.398;9.646;2023-04-23T06:04:13;100105.25;;;10.05;100.00
8160;BME280;27404;52.398;9.646;2023-04-23T06:06:39;100102.53;;;10.05;100.00
8160;BME280;27404;52.398;9.646;2023-04-23T06:09:04;100099.03;;;10.10;100.00
8160;BME280;27404;52.398;9.646;2023-04-23T06:11:31;100095.81;;;10.13;100.00
8160;BME280;27404;52.398;9.646;2023-04-23T06:13:57;100100.56;;;10.18;100.00
8160;BME280;27404;52.398;9.646;2023-04-23T06:16:23;100099.81;;;10.22;100.00
8160;BME280;27404;52.398;9.646;2023-04-23T06:18:49;100092.78;;;10.27;100.00
8160;BME280;27404;52.398;9.646;2023-04-23T06:21:15;100093.44;;;10.34;100.00
8160;BME280;27404;52.398;9.646;2023-04-23T06:23:41;100099.44;;;10.48;100.00
8160;BME280;27404;52.398;9.646;2023-04-23T06:26:06;100081.88;;;10.61;100.00
8160;BME280;27404;52.398;9.646;2023-04-23T06:28:31;100090.00;;;10.73;100.00
8160;BME280;27404;52.398;9.646;2023-04-23T06:30:57;100086.34;;;10.84;100.00
8160;BME280;27404;52.398;9.646;2023-04-23T06:33:22;100080.94;;;10.89;100.00
8160;BME280;27404;52.398;9.646;2023-04-23T06:35:48;100094.03;;;10.87;100.00
8160;BME280;27404;52.398;9.646;2023-04-23T06:38:13;100080.19;;;10.94;100.00
8160;BME280;27404;52.398;9.646;2023-04-23T06:40:39;100078.97;;;11.07;100.00
8160;BME280;27404;52.398;9.646;2023-04-23T06:43:04;100080.03;;;11.23;100.00
8160;BME280;27404;52.398;9.646;2023-04-23T06:45:32;100082.44;;;11.41;100.00
8160;BME280;27404;52.398;9.646;2023-04-23T06:47:58;100084.00;;;11.60;100.00
8160;BME280;27404;52.398;9.646;2023-04-23T06:50:24;100084.56;;;11.84;100.00
8160;BME280;27404;52.398;9.646;2023-04-23T06:52:50;100084.72;;;11.99;100.00
8160;BME280;27404;52.398;9.646;2023-04-23T06:55:17;100077.47;;;12.10;100.00
8160;BME280;27404;52.398;9.646;2023-04-23T06:57:42;100083.56;;;12.18;100.00
8160;BME280;27404;52.398;9.646;2023-04-23T07:00:08;100071.84;;;12.27;100.00
8160;BME280;27404;52.398;9.646;2023-04-23T07:02:35;100075.38;;;12.23;100.00
8160;BME280;27404;52.398;9.646;2023-04-23T07:05:01;100066.56;;;12.53;100.00
8160;BME280;27404;52.398;9.646;2023-04-23T07:07:26;100075.00;;;12.84;100.00
8160;BME280;27404;52.398;9.646;2023-04-23T07:09:52;100069.69;;;13.15;100.00
8160;BME280;27404;52.398;9.646;2023-04-23T07:12:18;100069.03;;;13.46;100.00
8160;BME280;27404;52.398;9.646;2023-04-23T07:14:43;100077.69;;;14.17;100.00
8160;BME280;27404;52.398;9.646;2023-04-23T07:17:09;100073.84;;;14.49;100.00
8160;BME280;27404;52.398;9.646;2023-04-23T07:19:36;100064.50;;;14.71;100.00
8160;BME280;27404;52.398;9.646;2023-04-23T07:22:01;100066.97;;;14.88;100.00
8160;BME280;27404;52.398;9.646;2023-04-23T07:24:27;100071.81;;;15.12;100.00
8160;BME280;27404;52.398;9.646;2023-04-23T07:26:52;100067.72;;;15.04;100.00
8160;BME280;27404;52.398;9.646;2023-04-23T07:29:18;100070.69;;;15.23;100.00
8160;BME280;27404;52.398;9.646;2023-04-23T07:31:43;100073.34;;;15.49;100.00
8160;BME280;27404;52.398;9.646;2023-04-23T07:34:09;100061.91;;;15.10;100.00
8160;BME280;27404;52.398;9.646;2023-04-23T07:36:35;100056.50;;;14.79;100.00
8160;BME280;27404;52.398;9.646;2023-04-23T07:39:00;100055.50;;;15.31;100.00
8160;BME280;27404;52.398;9.646;2023-04-23T07:41:26;100055.03;;;15.18;100.00
8160;BME280;27404;52.398;9.646;2023-04-23T07:43:51;100054.00;;;14.93;100.00
8160;BME280;27404;52.398;9.646;2023-04-23T07:46:17;100050.84;;;15.26;100.00
8160;BME280;27404;52.398;9.646;2023-04-23T07:48:42;100049.72;;;15.37;100.00
8160;BME280;27404;52.398;9.646;2023-04-23T07:51:08;100045.78;;;15.54;100.00
8160;BME280;27404;52.398;9.646;2023-04-23T07:53:34;100040.88;;;15.40;100.00
8160;BME280;27404;52.398;9.646;2023-04-23T07:55:59;100038.91;;;15.46;100.00
8160;BME280;27404;52.398;9.646;2023-04-23T07:58:25;100032.63;;;15.40;100.00
8160;BME280;27404;52.398;9.646;2023-04-23T08:00:51;100036.47;;;15.39;100.00
8160;BME280;27404;52.398;9.646;2023-04-23T08:03:16;100026.31;;;15.30;100.00
8160;BME280;27404;52.398;9.646;2023-04-23T08:05:42;100029.44;;;15.07;100.00
8160;BME280;27404;52.398;9.646;2023-04-23T08:08:10;100031.75;;;14.79;100.00
8160;BME280;27404;52.398;9.646;2023-04-23T08:10:35;100034.22;;;14.71;100.00
8160;BME280;27404;52.398;9.646;2023-04-23T08:13:01;100028.44;;;14.62;100.00
8160;BME280;27404;52.398;9.646;2023-04-23T08:15:26;100022.97;;;14.72;100.00
8160;BME280;27404;52.398;9.646;2023-04-23T08:17:52;100033.97;;;14.72;100.00
8160;BME280;27404;52.398;9.646;2023-04-23T08:20:17;100035.31;;;14.75;100.00
8160;BME280;27404;52.398;9.646;2023-04-23T08:22:43;100037.50;;;14.83;100.00
8160;BME280;27404;52.398;9.646;2023-04-23T08:25:09;100046.06;;;14.50;100.00
8160;BME280;27404;52.398;9.646;2023-04-23T08:27:34;100043.84;;;14.68;100.00
8160;BME280;27404;52.398;9.646;2023-04-23T08:30:00;100043.84;;;14.52;100.00
8160;BME280;27404;52.398;9.646;2023-04-23T08:32:25;100033.41;;;14.70;100.00
8160;BME280;27404;52.398;9.646;2023-04-23T08:34:51;100037.50;;;14.88;100.00
8160;BME280;27404;52.398;9.646;2023-04-23T08:37:16;100028.28;;;15.24;100.00
8160;BME280;27404;52.398;9.646;2023-04-23T08:39:41;100033.25;;;15.22;100.00
8160;BME280;27404;52.398;9.646;2023-04-23T08:42:10;100027.06;;;15.51;100.00
8160;BME280;27404;52.398;9.646;2023-04-23T08:44:40;100024.97;;;15.77;100.00
8160;BME280;27404;52.398;9.646;2023-04-23T08:47:09;100019.22;;;15.68;100.00
8160;BME280;27404;52.398;9.646;2023-04-23T08:49:40;100018.84;;;15.86;100.00
8160;BME280;27404;52.398;9.646;2023-04-23T08:52:14;100008.56;;;16.02;100.00
8160;BME280;27404;52.398;9.646;2023-04-23T08:54:51;100019.59;;;16.02;100.00
8160;BME280;27404;52.398;9.646;2023-04-23T08:57:17;100015.88;;;16.17;100.00
8160;BME280;27404;52.398;9.646;2023-04-23T08:59:44;100014.91;;;15.97;100.00
8160;BME280;27404;52.398;9.646;2023-04-23T09:02:10;100010.31;;;15.82;100.00
8160;BME280;27404;52.398;9.646;2023-04-23T09:04:36;100010.53;;;15.96;100.00
8160;BME280;27404;52.398;9.646;2023-04-23T09:07:02;100009.97;;;15.94;100.00
8160;BME280;27404;52.398;9.646;2023-04-23T09:09:38;100010.63;;;16.20;100.00
8160;BME280;27404;52.398;9.646;2023-04-23T09:12:08;100008.44;;;16.17;100.00
8160;BME280;27404;52.398;9.646;2023-04-23T09:14:34;99999.78;;;16.29;100.00
8160;BME280;27404;52.398;9.646;2023-04-23T09:17:01;100007.94;;;16.10;100.00
8160;BME280;27404;52.398;9.646;2023-04-23T09:19:27;100005.16;;;16.45;100.00
8160;BME280;27404;52.398;9.646;2023-04-23T09:21:53;100008.69;;;16.50;100.00
8160;BME280;27404;52.398;9.646;2023-04-23T09:24:23;100002.75;;;16.62;100.00
8160;BME280;27404;52.398;9.646;2023-04-23T09:26:51;99994.56;;;16.81;100.00
8160;BME280;27404;52.398;9.646;2023-04-23T09:29:21;99992.13;;;16.50;99.14
8160;BME280;27404;52.398;9.646;2023-04-23T09:31:54;99991.09;;;16.70;100.00
8160;BME280;27404;52.398;9.646;2023-04-23T09:34:21;99992.66;;;16.77;97.73
8160;BME280;27404;52.398;9.646;2023-04-23T09:36:49;99991.22;;;16.84;96.85
8160;BME280;27404;52.398;9.646;2023-04-23T09:39:16;99989.91;;;16.52;89.40
8160;BME280;27404;52.398;9.646;2023-04-23T09:41:43;99983.94;;;16.40;88.52
8160;BME280;27404;52.398;9.646;2023-04-23T09:44:10;99983.94;;;16.40;92.88
8160;BME280;27404;52.398;9.646;2023-04-23T09:46:41;99982.75;;;16.51;93.21
8160;BME280;27404;52.398;9.646;2023-04-23T09:49:07;99973.25;;;16.63;95.23
8160;BME280;27404;52.398;9.646;2023-04-23T09:51:43;99972.72;;;16.85;94.83
8160;BME280;27404;52.398;9.646;2023-04-23T09:54:16;99974.06;;;16.87;96.11
8160;BME280;27404;52.398;9.646;2023-04-23T09:56:43;99974.88;;;16.88;91.55
8160;BME280;27404;52.398;9.646;2023-04-23T09:59:26;99974.34;;;17.10;92.41
8160;BME280;27404;52.398;9.646;2023-04-23T10:01:53;99973.63;;;17.24;91.37
8160;BME280;27404;52.398;9.646;2023-04-23T10:04:20;99970.91;;;16.99;83.53
8160;BME280;27404;52.398;9.646;2023-04-23T10:07:00;99963.50;;;17.19;87.11
8160;BME280;27404;52.398;9.646;2023-04-23T10:09:28;99955.41;;;17.23;88.55
8160;BME280;27404;52.398;9.646;2023-04-23T10:11:56;99952.38;;;17.00;87.29
8160;BME280;27404;52.398;9.646;2023-04-23T10:14:22;99949.56;;;17.05;88.87
8160;BME280;27404;52.398;9.646;2023-04-23T10:16:59;99958.22;;;16.98;85.88
8160;BME280;27404;52.398;9.646;2023-04-23T10:19:25;99948.56;;;17.20;86.72
8160;BME280;27404;52.398;9.646;2023-04-23T10:22:04;99948.41;;;17.50;87.63
8160;BME280;27404;52.398;9.646;2023-04-23T10:24:33;99951.78;;;17.46;85.66
8160;BME280;27404;52.398;9.646;2023-04-23T10:27:01;99942.78;;;17.74;83.25
8160;BME280;27404;52.398;9.646;2023-04-23T10:29:32;99935.13;;;17.85;78.15
8160;BME280;27404;52.398;9.646;2023-04-23T10:32:02;99944.88;;;17.63;80.66
8160;BME280;27404;52.398;9.646;2023-04-23T10:34:30;99935.78;;;17.63;81.30
8160;BME280;27404;52.398;9.646;2023-04-23T10:36:57;99929.66;;;17.66;76.83
8160;BME280;27404;52.398;9.646;2023-04-23T10:39:31;99935.69;;;17.68;83.64
8160;BME280;27404;52.398;9.646;2023-04-23T10:42:01;99940.91;;;17.69;81.77
8160;BME280;27404;52.398;9.646;2023-04-23T10:44:37;99942.50;;;17.56;79.53
8160;BME280;27404;52.398;9.646;2023-04-23T10:47:03;99940.66;;;17.52;79.90
8160;BME280;27404;52.398;9.646;2023-04-23T10:49:30;99942.50;;;17.37;79.88
8160;BME280;27404;52.398;9.646;2023-04-23T10:52:01;99937.03;;;17.51;76.60
8160;BME280;27404;52.398;9.646;2023-04-23T10:54:31;99937.88;;;17.52;77.04
8160;BME280;27404;52.398;9.646;2023-04-23T10:57:04;99927.75;;;17.61;74.88
8160;BME280;27404;52.398;9.646;2023-04-23T10:59:31;99926.44;;;17.58;76.47
8160;BME280;27404;52.398;9.646;2023-04-23T11:01:58;99933.56;;;17.79;79.02
8160;BME280;27404;52.398;9.646;2023-04-23T11:04:29;99933.81;;;17.63;72.34
8160;BME280;27404;52.398;9.646;2023-04-23T11:07:06;99930.09;;;17.35;74.01
8160;BME280;27404;52.398;9.646;2023-04-23T11:09:38;99928.69;;;17.18;77.75
8160;BME280;27404;52.398;9.646;2023-04-23T11:12:09;99938.69;;;17.33;75.92
8160;BME280;27404;52.398;9.646;2023-04-23T11:14:46;99928.97;;;17.36;78.56
8160;BME280;27404;52.398;9.646;2023-04-23T11:17:17;99927.16;;;17.64;75.60
8160;BME280;27404;52.398;9.646;2023-04-23T11:20:05;99927.41;;;18.01;74.08
8160;BME280;27404;52.398;9.646;2023-04-23T11:22:58;99914.53;;;18.10;71.75
8160;BME280;27404;52.398;9.646;2023-04-23T11:25:25;99930.75;;;18.17;72.63
8160;BME280;27404;52.398;9.646;2023-04-23T11:27:53;99924.81;;;18.38;72.17
8160;BME280;27404;52.398;9.646;2023-04-23T11:30:21;99920.03;;;18.57;72.27
8160;BME280;27404;52.398;9.646;2023-04-23T11:32:48;99916.84;;;18.78;72.52
8160;BME280;27404;52.398;9.646;2023-04-23T11:35:16;99907.19;;;19.03;72.73
8160;BME280;27404;52.398;9.646;2023-04-23T11:37:43;99910.38;;;18.97;71.59
8160;BME280;27404;52.398;9.646;2023-04-23T11:40:11;99905.56;;;18.74;70.62
8160;BME280;27404;52.398;9.646;2023-04-23T11:42:51;99912.59;;;18.94;69.13
8160;BME280;27404;52.398;9.646;2023-04-23T11:45:23;99911.91;;;18.89;71.65
8160;BME280;27404;52.398;9.646;2023-04-23T11:47:57;99906.56;;;18.92;69.92
8160;BME280;27404;52.398;9.646;2023-04-23T11:50:30;99907.59;;;19.11;68.54
8160;BME280;27404;52.398;9.646;2023-04-23T11:53:03;99917.75;;;19.75;66.12
8160;BME280;27404;52.398;9.646;2023-04-23T11:55:29;99909.75;;;20.27;64.37
8160;BME280;27404;52.398;9.646;2023-04-23T11:57:56;99903.78;;;20.43;64.45
8160;BME280;27404;52.398;9.646;2023-04-23T12:00:23;99908.91;;;19.95;62.45
8160;BME280;27404;52.398;9.646;2023-04-23T12:05:18;99895.84;;;19.73;62.53
8160;BME280;27404;52.398;9.646;2023-04-23T12:07:47;99892.34;;;19.36;74.32
8160;BME280;27404;52.398;9.646;2023-04-23T12:10:20;99878.84;;;19.20;87.63
8160;BME280;27404;52.398;9.646;2023-04-23T12:12:52;99884.78;;;19.96;83.71
8160;BME280;27404;52.398;9.646;2023-04-23T12:15:18;99881.84;;;20.33;76.91
8160;BME280;27404;52.398;9.646;2023-04-23T12:17:51;99886.06;;;20.21;68.34
8160;BME280;27404;52.398;9.646;2023-04-23T12:20:20;99892.41;;;20.22;67.54
8160;BME280;27404;52.398;9.646;2023-04-23T12:22:47;99882.38;;;18.98;65.57
8160;BME280;27404;52.398;9.646;2023-04-23T12:25:13;99880.34;;;18.62;67.06
8160;BME280;27404;52.398;9.646;2023-04-23T12:27:39;99879.94;;;18.69;65.33
8160;BME280;27404;52.398;9.646;2023-04-23T12:30:07;99875.31;;;18.78;64.81
8160;BME280;27404;52.398;9.646;2023-04-23T12:32:33;99872.81;;;19.41;63.47
8160;BME280;27404;52.398;9.646;2023-04-23T12:34:59;99868.78;;;19.93;60.92
8160;BME280;27404;52.398;9.646;2023-04-23T12:37:28;99866.78;;;20.25;63.41
8160;BME280;27404;52.398;9.646;2023-04-23T12:39:55;99863.44;;;20.37;59.77
8160;BME280;27404;52.398;9.646;2023-04-23T12:42:23;99868.34;;;20.40;57.96
8160;BME280;27404;52.398;9.646;2023-04-23T12:44:50;99853.91;;;20.29;57.98
8160;BME280;27404;52.398;9.646;2023-04-23T12:47:16;99865.59;;;20.57;60.40
8160;BME280;27404;52.398;9.646;2023-04-23T12:49:45;99856.25;;;20.45;59.12
8160;BME280;27404;52.398;9.646;2023-04-23T12:52:11;99856.38;;;20.31;59.66
8160;BME280;27404;52.398;9.646;2023-04-23T12:54:39;99849.44;;;20.60;59.11
8160;BME280;27404;52.398;9.646;2023-04-23T12:57:06;99848.63;;;20.59;58.94
8160;BME280;27404;52.398;9.646;2023-04-23T12:59:33;99845.84;;;20.50;59.67